sensor_id;sensor_type;location;lat;lon;timestamp;temperature;humidity
63317;DHT22;49822;41.468;13.560;2023-02-01T00:01:16;4.40;74.00
63317;DHT22;49822;41.468;13.560;2023-02-01T00:03:44;4.30;73.80
63317;DHT22;49822;41.468;13.560;2023-02-01T00:06:12;4.20;74.50
63317;DHT22;49822;41.468;13.560;2023-02-01T00:08:39;4.00;74.70
63317;DHT22;49822;41.468;13.560;2023-02-01T00:11:10;3.90;74.40
63317;DHT22;49822;41.468;13.560;2023-02-01T00:13:39;3.40;76.00
63317;DHT22;49822;41.468;13.560;2023-02-01T00:16:19;3.50;77.70
63317;DHT22;49822;41.468;13.560;2023-02-01T00:18:49;3.50;77.00
63317;DHT22;49822;41.468;13.560;2023-02-01T00:21:21;3.50;77.10
63317;DHT22;49822;41.468;13.560;2023-02-01T00:23:49;3.50;77.00
63317;DHT22;49822;41.468;13.560;2023-02-01T00:26:30;3.30;78.60
63317;DHT22;49822;41.468;13.560;2023-02-01T00:28:59;3.40;78.60
63317;DHT22;49822;41.468;13.560;2023-02-01T00:31:27;3.10;76.10
63317;DHT22;49822;41.468;13.560;2023-02-01T00:33:56;2.70;80.80
63317;DHT22;49822;41.468;13.560;2023-02-01T00:36:24;2.80;81.40
63317;DHT22;49822;41.468;13.560;2023-02-01T00:38:52;3.00;81.10
63317;DHT22;49822;41.468;13.560;2023-02-01T00:41:21;3.20;80.20
63317;DHT22;49822;41.468;13.560;2023-02-01T00:43:50;2.80;79.10
63317;DHT22;49822;41.468;13.560;2023-02-01T00:46:19;2.90;80.60
63317;DHT22;49822;41.468;13.560;2023-02-01T00:48:47;2.80;80.00
63317;DHT22;49822;41.468;13.560;2023-02-01T00:51:18;2.70;81.10
63317;DHT22;49822;41.468;13.560;2023-02-01T00:53:46;2.90;82.20
63317;DHT22;49822;41.468;13.560;2023-02-01T00:56:14;3.10;81.50
63317;DHT22;49822;41.468;13.560;2023-02-01T00:58:41;3.10;80.80
63317;DHT22;49822;41.468;13.560;2023-02-01T01:01:17;3.10;80.00
63317;DHT22;49822;41.468;13.560;2023-02-01T01:03:48;3.10;79.40
63317;DHT22;49822;41.468;13.560;2023-02-01T01:06:21;3.10;79.10
63317;DHT22;49822;41.468;13.560;2023-02-01T01:08:51;3.10;78.90
63317;DHT22;49822;41.468;13.560;2023-02-01T01:11:21;3.10;78.30
63317;DHT22;49822;41.468;13.560;2023-02-01T01:13:50;2.80;77.80
63317;DHT22;49822;41.468;13.560;2023-02-01T01:16:19;2.20;79.20
63317;DHT22;49822;41.468;13.560;2023-02-01T01:18:47;2.00;82.90
63317;DHT22;49822;41.468;13.560;2023-02-01T01:21:16;2.00;83.80
63317;DHT22;49822;41.468;13.560;2023-02-01T01:23:45;2.00;84.30
63317;DHT22;49822;41.468;13.560;2023-02-01T01:26:22;2.10;85.00
63317;DHT22;49822;41.468;13.560;2023-02-01T01:28:50;2.20;84.30
63317;DHT22;49822;41.468;13.560;2023-02-01T01:31:19;2.30;84.30
63317;DHT22;49822;41.468;13.560;2023-02-01T01:34:03;2.30;84.10
63317;DHT22;49822;41.468;13.560;2023-02-01T01:37:39;2.50;85.00
63317;DHT22;49822;41.468;13.560;2023-02-01T01:40:59;2.90;84.40
63317;DHT22;49822;41.468;13.560;2023-02-01T01:45:01;3.10;82.60
63317;DHT22;49822;41.468;13.560;2023-02-01T01:48:35;3.20;80.20
63317;DHT22;49822;41.468;13.560;2023-02-01T01:51:20;2.40;81.20
63317;DHT22;49822;41.468;13.560;2023-02-01T01:54:34;2.50;82.20
63317;DHT22;49822;41.468;13.560;2023-02-01T01:57:59;2.80;82.70
63317;DHT22;49822;41.468;13.560;2023-02-01T02:00:35;3.10;81.20
63317;DHT22;49822;41.468;13.560;2023-02-01T02:03:30;3.10;80.00
63317;DHT22;49822;41.468;13.560;2023-02-01T02:06:03;3.30;79.70
63317;DHT22;49822;41.468;13.560;2023-02-01T02:08:32;3.30;79.00
63317;DHT22;49822;41.468;13.560;2023-02-01T02:10:59;3.10;79.00
63317;DHT22;49822;41.468;13.560;2023-02-01T02:13:34;3.10;79.20
63317;DHT22;49822;41.468;13.560;2023-02-01T02:16:40;2.90;79.00
63317;DHT22;49822;41.468;13.560;2023-02-01T02:31:07;2.00;84.10
63317;DHT22;49822;41.468;13.560;2023-02-01T02:51:04;2.00;82.50
63317;DHT22;49822;41.468;13.560;2023-02-01T02:54:19;2.20;83.60
63317;DHT22;49822;41.468;13.560;2023-02-01T02:57:10;2.30;82.40
63317;DHT22;49822;41.468;13.560;2023-02-01T03:00:00;2.50;82.10
63317;DHT22;49822;41.468;13.560;2023-02-01T03:02:47;2.50;79.70
63317;DHT22;49822;41.468;13.560;2023-02-01T03:05:39;2.30;81.90
63317;DHT22;49822;41.468;13.560;2023-02-01T03:08:18;2.20;81.50
63317;DHT22;49822;41.468;13.560;2023-02-01T03:13:45;2.40;82.30
63317;DHT22;49822;41.468;13.560;2023-02-01T03:16:31;2.50;81.20
63317;DHT22;49822;41.468;13.560;2023-02-01T03:19:42;2.20;79.80
63317;DHT22;49822;41.468;13.560;2023-02-01T03:22:14;2.00;80.80
63317;DHT22;49822;41.468;13.560;2023-02-01T03:24:50;2.10;80.30
63317;DHT22;49822;41.468;13.560;2023-02-01T03:29:59;2.00;78.70
63317;DHT22;49822;41.468;13.560;2023-02-01T03:32:29;2.00;78.20
63317;DHT22;49822;41.468;13.560;2023-02-01T03:35:20;2.10;78.70
63317;DHT22;49822;41.468;13.560;2023-02-01T03:37:53;2.20;77.10
63317;DHT22;49822;41.468;13.560;2023-02-01T03:40:26;2.20;77.70
63317;DHT22;49822;41.468;13.560;2023-02-01T03:42:57;2.10;77.00
63317;DHT22;49822;41.468;13.560;2023-02-01T03:45:38;1.90;77.20
63317;DHT22;49822;41.468;13.560;2023-02-01T03:48:13;1.80;78.00
63317;DHT22;49822;41.468;13.560;2023-02-01T03:50:47;1.80;77.90
63317;DHT22;49822;41.468;13.560;2023-02-01T03:53:19;1.80;78.20
63317;DHT22;49822;41.468;13.560;2023-02-01T03:55:50;1.80;78.50
63317;DHT22;49822;41.468;13.560;2023-02-01T03:58:22;1.90;77.60
63317;DHT22;49822;41.468;13.560;2023-02-01T04:00:57;1.20;77.20
63317;DHT22;49822;41.468;13.560;2023-02-01T04:03:27;0.60;80.90
63317;DHT22;49822;41.468;13.560;2023-02-01T04:05:56;0.50;82.90
63317;DHT22;49822;41.468;13.560;2023-02-01T04:08:27;0.80;85.00
63317;DHT22;49822;41.468;13.560;2023-02-01T04:10:55;1.10;84.80
63317;DHT22;49822;41.468;13.560;2023-02-01T04:13:23;1.30;83.30
63317;DHT22;49822;41.468;13.560;2023-02-01T04:15:52;1.40;80.90
63317;DHT22;49822;41.468;13.560;2023-02-01T04:18:20;0.80;79.20
63317;DHT22;49822;41.468;13.560;2023-02-01T04:20:49;0.40;81.70
63317;DHT22;49822;41.468;13.560;2023-02-01T04:23:16;0.50;83.20
63317;DHT22;49822;41.468;13.560;2023-02-01T04:25:44;0.70;84.50
63317;DHT22;49822;41.468;13.560;2023-02-01T04:28:11;1.00;84.80
63317;DHT22;49822;41.468;13.560;2023-02-01T04:30:40;1.20;83.00
63317;DHT22;49822;41.468;13.560;2023-02-01T04:33:10;1.10;82.80
63317;DHT22;49822;41.468;13.560;2023-02-01T04:35:41;1.40;82.80
63317;DHT22;49822;41.468;13.560;2023-02-01T04:38:08;1.50;82.40
63317;DHT22;49822;41.468;13.560;2023-02-01T04:40:36;1.30;80.70
63317;DHT22;49822;41.468;13.560;2023-02-01T04:43:04;1.20;80.20
63317;DHT22;49822;41.468;13.560;2023-02-01T04:45:34;1.20;80.10
63317;DHT22;49822;41.468;13.560;2023-02-01T04:48:05;1.10;79.10
63317;DHT22;49822;41.468;13.560;2023-02-01T04:50:33;1.00;78.70
63317;DHT22;49822;41.468;13.560;2023-02-01T04:53:00;0.80;80.20
63317;DHT22;49822;41.468;13.560;2023-02-01T04:55:28;0.80;80.80
63317;DHT22;49822;41.468;13.560;2023-02-01T04:57:55;0.80;81.50
63317;DHT22;49822;41.468;13.560;2023-02-01T05:00:24;0.90;81.50
63317;DHT22;49822;41.468;13.560;2023-02-01T05:02:57;1.00;81.70
63317;DHT22;49822;41.468;13.560;2023-02-01T05:05:26;1.00;81.00
63317;DHT22;49822;41.468;13.560;2023-02-01T05:07:54;1.00;79.40
63317;DHT22;49822;41.468;13.560;2023-02-01T05:10:22;1.00;79.90
63317;DHT22;49822;41.468;13.560;2023-02-01T05:12:50;1.10;79.70
63317;DHT22;49822;41.468;13.560;2023-02-01T05:15:39;1.10;79.40
63317;DHT22;49822;41.468;13.560;2023-02-01T05:18:10;1.20;79.10
63317;DHT22;49822;41.468;13.560;2023-02-01T05:20:38;1.20;78.30
63317;DHT22;49822;41.468;13.560;2023-02-01T05:23:05;1.00;78.70
63317;DHT22;49822;41.468;13.560;2023-02-01T05:25:34;0.30;78.90
63317;DHT22;49822;41.468;13.560;2023-02-01T05:28:01;-0.10;82.10
63317;DHT22;49822;41.468;13.560;2023-02-01T05:30:29;-0.10;83.90
63317;DHT22;49822;41.468;13.560;2023-02-01T05:32:57;-0.40;85.30
63317;DHT22;49822;41.468;13.560;2023-02-01T05:35:25;-0.50;87.50
63317;DHT22;49822;41.468;13.560;2023-02-01T05:37:53;-0.60;88.10
63317;DHT22;49822;41.468;13.560;2023-02-01T05:40:20;-0.50;89.10
63317;DHT22;49822;41.468;13.560;2023-02-01T05:42:49;-0.20;89.90
63317;DHT22;49822;41.468;13.560;2023-02-01T05:45:17;-0.10;89.70
63317;DHT22;49822;41.468;13.560;2023-02-01T05:47:44;0.10;89.70
63317;DHT22;49822;41.468;13.560;2023-02-01T05:50:12;0.20;88.40
63317;DHT22;49822;41.468;13.560;2023-02-01T05:52:40;0.10;87.00
63317;DHT22;49822;41.468;13.560;2023-02-01T05:55:08;0.00;85.00
63317;DHT22;49822;41.468;13.560;2023-02-01T05:57:36;-0.50;85.10
63317;DHT22;49822;41.468;13.560;2023-02-01T06:00:05;-0.40;86.90
63317;DHT22;49822;41.468;13.560;2023-02-01T06:02:38;-0.20;88.20
63317;DHT22;49822;41.468;13.560;2023-02-01T06:05:07;0.00;88.20
63317;DHT22;49822;41.468;13.560;2023-02-01T06:07:35;0.20;88.50
63317;DHT22;49822;41.468;13.560;2023-02-01T06:10:03;0.40;88.00
63317;DHT22;49822;41.468;13.560;2023-02-01T06:12:33;0.70;87.30
63317;DHT22;49822;41.468;13.560;2023-02-01T06:15:00;0.60;84.70
63317;DHT22;49822;41.468;13.560;2023-02-01T06:17:28;0.50;84.30
63317;DHT22;49822;41.468;13.560;2023-02-01T06:19:56;0.70;84.40
63317;DHT22;49822;41.468;13.560;2023-02-01T06:22:23;0.90;84.10
63317;DHT22;49822;41.468;13.560;2023-02-01T06:24:51;1.10;83.70
63317;DHT22;49822;41.468;13.560;2023-02-01T06:27:19;1.00;80.70
63317;DHT22;49822;41.468;13.560;2023-02-01T06:29:47;0.90;81.50
63317;DHT22;49822;41.468;13.560;2023-02-01T06:32:14;0.60;81.10
63317;DHT22;49822;41.468;13.560;2023-02-01T06:34:42;0.80;82.60
63317;DHT22;49822;41.468;13.560;2023-02-01T06:37:10;0.90;82.30
63317;DHT22;49822;41.468;13.560;2023-02-01T06:39:39;0.80;81.90
63317;DHT22;49822;41.468;13.560;2023-02-01T06:42:06;1.00;82.30
63317;DHT22;49822;41.468;13.560;2023-02-01T06:44:34;1.10;81.50
63317;DHT22;49822;41.468;13.560;2023-02-01T06:47:03;1.30;81.40
63317;DHT22;49822;41.468;13.560;2023-02-01T06:49:34;1.40;81.00
63317;DHT22;49822;41.468;13.560;2023-02-01T06:52:02;1.40;80.60
63317;DHT22;49822;41.468;13.560;2023-02-01T06:54:30;1.70;80.20
63317;DHT22;49822;41.468;13.560;2023-02-01T06:57:01;1.80;79.40
63317;DHT22;49822;41.468;13.560;2023-02-01T06:59:29;2.00;78.40
63317;DHT22;49822;41.468;13.560;2023-02-01T07:01:56;2.10;77.80
63317;DHT22;49822;41.468;13.560;2023-02-01T07:04:24;2.20;76.70
63317;DHT22;49822;41.468;13.560;2023-02-01T07:06:51;2.10;75.30
63317;DHT22;49822;41.468;13.560;2023-02-01T07:09:20;2.00;76.50
63317;DHT22;49822;41.468;13.560;2023-02-01T07:11:51;2.00;77.00
63317;DHT22;49822;41.468;13.560;2023-02-01T07:14:20;2.20;77.10
63317;DHT22;49822;41.468;13.560;2023-02-01T07:16:49;2.30;75.70
63317;DHT22;49822;41.468;13.560;2023-02-01T07:19:16;2.10;76.60
63317;DHT22;49822;41.468;13.560;2023-02-01T07:21:45;2.00;77.20
63317;DHT22;49822;41.468;13.560;2023-02-01T07:24:12;1.60;78.90
63317;DHT22;49822;41.468;13.560;2023-02-01T07:26:42;1.40;78.70
63317;DHT22;49822;41.468;13.560;2023-02-01T07:29:09;1.20;79.70
63317;DHT22;49822;41.468;13.560;2023-02-01T07:31:37;1.30;80.40
63317;DHT22;49822;41.468;13.560;2023-02-01T07:34:05;1.40;80.80
63317;DHT22;49822;41.468;13.560;2023-02-01T07:36:32;1.60;81.00
63317;DHT22;49822;41.468;13.560;2023-02-01T07:39:02;1.80;81.00
63317;DHT22;49822;41.468;13.560;2023-02-01T07:41:30;2.10;80.20
63317;DHT22;49822;41.468;13.560;2023-02-01T07:43:58;2.40;79.80
63317;DHT22;49822;41.468;13.560;2023-02-01T07:46:25;2.70;79.60
63317;DHT22;49822;41.468;13.560;2023-02-01T07:48:54;3.10;78.00
63317;DHT22;49822;41.468;13.560;2023-02-01T07:51:22;3.30;77.50
63317;DHT22;49822;41.468;13.560;2023-02-01T07:53:50;3.50;76.60
63317;DHT22;49822;41.468;13.560;2023-02-01T07:56:19;3.50;75.80
63317;DHT22;49822;41.468;13.560;2023-02-01T07:58:50;3.50;74.90
63317;DHT22;49822;41.468;13.560;2023-02-01T08:01:24;3.60;73.90
63317;DHT22;49822;41.468;13.560;2023-02-01T08:03:58;3.50;74.00
63317;DHT22;49822;41.468;13.560;2023-02-01T08:06:27;3.50;74.60
63317;DHT22;49822;41.468;13.560;2023-02-01T08:09:03;3.60;75.00
63317;DHT22;49822;41.468;13.560;2023-02-01T08:11:33;3.60;75.70
63317;DHT22;49822;41.468;13.560;2023-02-01T08:14:01;3.50;74.70
63317;DHT22;49822;41.468;13.560;2023-02-01T08:16:28;3.50;75.50
63317;DHT22;49822;41.468;13.560;2023-02-01T08:18:56;3.60;75.00
63317;DHT22;49822;41.468;13.560;2023-02-01T08:21:27;3.70;74.20
63317;DHT22;49822;41.468;13.560;2023-02-01T08:24:08;3.60;73.60
63317;DHT22;49822;41.468;13.560;2023-02-01T08:26:36;3.90;74.10
63317;DHT22;49822;41.468;13.560;2023-02-01T08:29:06;4.10;73.00
63317;DHT22;49822;41.468;13.560;2023-02-01T08:31:34;4.30;71.50
63317;DHT22;49822;41.468;13.560;2023-02-01T08:34:02;4.50;70.90
63317;DHT22;49822;41.468;13.560;2023-02-01T08:36:35;4.70;69.40
63317;DHT22;49822;41.468;13.560;2023-02-01T08:39:05;5.00;68.90
63317;DHT22;49822;41.468;13.560;2023-02-01T08:41:36;5.00;67.10
63317;DHT22;49822;41.468;13.560;2023-02-01T08:44:03;4.90;66.30
63317;DHT22;49822;41.468;13.560;2023-02-01T08:46:31;4.90;67.70
63317;DHT22;49822;41.468;13.560;2023-02-01T08:48:59;5.10;67.20
63317;DHT22;49822;41.468;13.560;2023-02-01T08:51:26;5.30;68.10
63317;DHT22;49822;41.468;13.560;2023-02-01T08:53:55;5.40;67.10
63317;DHT22;49822;41.468;13.560;2023-02-01T08:56:22;5.50;66.80
63317;DHT22;49822;41.468;13.560;2023-02-01T08:58:49;5.60;67.10
63317;DHT22;49822;41.468;13.560;2023-02-01T09:01:17;6.00;67.10
63317;DHT22;49822;41.468;13.560;2023-02-01T09:03:46;6.30;66.80
63317;DHT22;49822;41.468;13.560;2023-02-01T09:06:16;6.70;66.50
63317;DHT22;49822;41.468;13.560;2023-02-01T09:08:44;7.00;65.10
63317;DHT22;49822;41.468;13.560;2023-02-01T09:11:15;7.20;63.80
63317;DHT22;49822;41.468;13.560;2023-02-01T09:13:43;7.20;63.90
63317;DHT22;49822;41.468;13.560;2023-02-01T09:16:11;7.50;64.20
63317;DHT22;49822;41.468;13.560;2023-02-01T09:18:40;7.50;63.30
63317;DHT22;49822;41.468;13.560;2023-02-01T09:21:28;7.50;63.60
63317;DHT22;49822;41.468;13.560;2023-02-01T09:23:57;7.70;63.10
63317;DHT22;49822;41.468;13.560;2023-02-01T09:26:24;7.80;63.60
63317;DHT22;49822;41.468;13.560;2023-02-01T09:29:00;8.10;62.70
63317;DHT22;49822;41.468;13.560;2023-02-01T09:31:29;8.20;61.50
63317;DHT22;49822;41.468;13.560;2023-02-01T09:33:57;8.30;60.80
63317;DHT22;49822;41.468;13.560;2023-02-01T09:36:24;8.40;60.00
63317;DHT22;49822;41.468;13.560;2023-02-01T09:38:53;8.30;60.40
63317;DHT22;49822;41.468;13.560;2023-02-01T09:41:42;8.50;59.90
63317;DHT22;49822;41.468;13.560;2023-02-01T09:47:25;8.60;59.20
63317;DHT22;49822;41.468;13.560;2023-02-01T09:50:17;8.80;59.60
63317;DHT22;49822;41.468;13.560;2023-02-01T09:57:51;9.40;58.20
63317;DHT22;49822;41.468;13.560;2023-02-01T10:00:24;9.50;58.10
63317;DHT22;49822;41.468;13.560;2023-02-01T10:02:55;10.00;58.10
63317;DHT22;49822;41.468;13.560;2023-02-01T10:14:09;11.40;53.80
63317;DHT22;49822;41.468;13.560;2023-02-01T10:19:39;12.60;50.50
63317;DHT22;49822;41.468;13.560;2023-02-01T10:25:40;13.80;47.20
63317;DHT22;49822;41.468;13.560;2023-02-01T10:28:15;14.10;46.00
63317;DHT22;49822;41.468;13.560;2023-02-01T10:30:46;14.30;45.60
63317;DHT22;49822;41.468;13.560;2023-02-01T10:33:33;15.50;44.10
63317;DHT22;49822;41.468;13.560;2023-02-01T10:39:37;16.10;40.60
63317;DHT22;49822;41.468;13.560;2023-02-01T10:42:05;15.30;42.70
63317;DHT22;49822;41.468;13.560;2023-02-01T10:44:35;14.50;44.60
63317;DHT22;49822;41.468;13.560;2023-02-01T10:47:09;14.30;45.20
63317;DHT22;49822;41.468;13.560;2023-02-01T10:52:40;13.70;46.70
63317;DHT22;49822;41.468;13.560;2023-02-01T10:58:17;12.50;49.90
63317;DHT22;49822;41.468;13.560;2023-02-01T11:00:48;12.50;49.50
63317;DHT22;49822;41.468;13.560;2023-02-01T11:11:57;9.90;57.30
63317;DHT22;49822;41.468;13.560;2023-02-01T11:14:27;10.90;55.30
63317;DHT22;49822;41.468;13.560;2023-02-01T11:20:35;10.40;55.70
63317;DHT22;49822;41.468;13.560;2023-02-01T11:23:05;10.20;55.90
63317;DHT22;49822;41.468;13.560;2023-02-01T11:25:35;10.20;56.40
63317;DHT22;49822;41.468;13.560;2023-02-01T11:28:03;10.30;55.70
63317;DHT22;49822;41.468;13.560;2023-02-01T11:30:36;10.40;56.20
63317;DHT22;49822;41.468;13.560;2023-02-01T11:33:24;10.40;56.00
63317;DHT22;49822;41.468;13.560;2023-02-01T11:35:57;10.10;56.40
63317;DHT22;49822;41.468;13.560;2023-02-01T11:38:31;10.10;56.80
63317;DHT22;49822;41.468;13.560;2023-02-01T11:41:13;10.40;57.50
63317;DHT22;49822;41.468;13.560;2023-02-01T11:44:05;10.80;56.30
63317;DHT22;49822;41.468;13.560;2023-02-01T11:46:43;11.10;54.30
63317;DHT22;49822;41.468;13.560;2023-02-01T11:52:07;11.50;54.20
63317;DHT22;49822;41.468;13.560;2023-02-01T12:16:57;11.10;55.70
63317;DHT22;49822;41.468;13.560;2023-02-01T12:27:45;11.50;54.20
63317;DHT22;49822;41.468;13.560;2023-02-01T12:41:45;11.70;54.80
63317;DHT22;49822;41.468;13.560;2023-02-01T12:44:43;11.50;55.80
63317;DHT22;49822;41.468;13.560;2023-02-01T12:47:37;11.70;55.00
63317;DHT22;49822;41.468;13.560;2023-02-01T12:50:38;12.20;54.40
63317;DHT22;49822;41.468;13.560;2023-02-01T12:56:31;13.30;52.00
63317;DHT22;49822;41.468;13.560;2023-02-01T12:59:02;13.30;51.10
63317;DHT22;49822;41.468;13.560;2023-02-01T13:01:49;13.20;50.80
63317;DHT22;49822;41.468;13.560;2023-02-01T13:04:26;12.80;50.80
63317;DHT22;49822;41.468;13.560;2023-02-01T13:07:18;12.70;50.90
63317;DHT22;49822;41.468;13.560;2023-02-01T13:09:51;13.10;51.80
63317;DHT22;49822;41.468;13.560;2023-02-01T13:12:43;13.00;51.10
63317;DHT22;49822;41.468;13.560;2023-02-01T13:15:13;12.90;50.80
63317;DHT22;49822;41.468;13.560;2023-02-01T13:17:43;12.50;51.30
63317;DHT22;49822;41.468;13.560;2023-02-01T13:21:06;12.20;54.20
63317;DHT22;49822;41.468;13.560;2023-02-01T13:23:38;12.00;53.50
63317;DHT22;49822;41.468;13.560;2023-02-01T13:26:06;12.00;53.90
63317;DHT22;49822;41.468;13.560;2023-02-01T13:28:53;12.10;52.90
63317;DHT22;49822;41.468;13.560;2023-02-01T13:31:39;12.30;53.60
63317;DHT22;49822;41.468;13.560;2023-02-01T13:37:32;12.70;51.90
63317;DHT22;49822;41.468;13.560;2023-02-01T13:43:25;13.40;51.30
63317;DHT22;49822;41.468;13.560;2023-02-01T13:46:05;13.70;51.00
63317;DHT22;49822;41.468;13.560;2023-02-01T13:48:48;14.10;50.60
63317;DHT22;49822;41.468;13.560;2023-02-01T13:51:43;14.30;49.80
63317;DHT22;49822;41.468;13.560;2023-02-01T13:54:28;14.90;48.00
63317;DHT22;49822;41.468;13.560;2023-02-01T13:57:02;15.10;48.40
63317;DHT22;49822;41.468;13.560;2023-02-01T14:10:57;15.60;46.50
63317;DHT22;49822;41.468;13.560;2023-02-01T14:13:36;15.10;47.90
63317;DHT22;49822;41.468;13.560;2023-02-01T14:24:24;15.50;49.20
63317;DHT22;49822;41.468;13.560;2023-02-01T14:26:56;15.80;47.90
63317;DHT22;49822;41.468;13.560;2023-02-01T14:29:37;16.20;47.20
63317;DHT22;49822;41.468;13.560;2023-02-01T14:40:04;14.40;53.70
63317;DHT22;49822;41.468;13.560;2023-02-01T14:42:38;14.20;53.90
63317;DHT22;49822;41.468;13.560;2023-02-01T14:55:57;12.80;60.50
63317;DHT22;49822;41.468;13.560;2023-02-01T15:01:24;13.40;59.50
63317;DHT22;49822;41.468;13.560;2023-02-01T15:04:13;12.70;61.40
63317;DHT22;49822;41.468;13.560;2023-02-01T15:06:51;12.50;61.30
63317;DHT22;49822;41.468;13.560;2023-02-01T15:09:31;12.80;60.40
63317;DHT22;49822;41.468;13.560;2023-02-01T15:14:46;12.50;59.30
63317;DHT22;49822;41.468;13.560;2023-02-01T15:17:26;12.70;59.50
63317;DHT22;49822;41.468;13.560;2023-02-01T15:19:58;12.50;59.50
63317;DHT22;49822;41.468;13.560;2023-02-01T15:22:30;11.90;61.80
63317;DHT22;49822;41.468;13.560;2023-02-01T15:25:00;11.60;62.30
63317;DHT22;49822;41.468;13.560;2023-02-01T15:27:35;11.40;63.20
63317;DHT22;49822;41.468;13.560;2023-02-01T15:30:19;11.30;63.40
63317;DHT22;49822;41.468;13.560;2023-02-01T15:32:50;11.20;63.70
63317;DHT22;49822;41.468;13.560;2023-02-01T15:35:41;11.30;63.30
63317;DHT22;49822;41.468;13.560;2023-02-01T15:43:33;11.10;63.10
63317;DHT22;49822;41.468;13.560;2023-02-01T15:46:09;11.10;63.60
63317;DHT22;49822;41.468;13.560;2023-02-01T15:48:49;11.10;63.10
63317;DHT22;49822;41.468;13.560;2023-02-01T15:51:20;11.10;61.90
63317;DHT22;49822;41.468;13.560;2023-02-01T15:53:56;11.20;62.00
63317;DHT22;49822;41.468;13.560;2023-02-01T15:56:27;11.20;62.50
63317;DHT22;49822;41.468;13.560;2023-02-01T15:59:02;11.10;62.60
63317;DHT22;49822;41.468;13.560;2023-02-01T16:01:38;11.00;63.00
63317;DHT22;49822;41.468;13.560;2023-02-01T16:09:39;10.80;62.30
63317;DHT22;49822;41.468;13.560;2023-02-01T16:12:30;10.80;62.20
63317;DHT22;49822;41.468;13.560;2023-02-01T16:14:58;10.70;62.80
63317;DHT22;49822;41.468;13.560;2023-02-01T16:17:26;10.70;62.70
63317;DHT22;49822;41.468;13.560;2023-02-01T16:19:53;10.70;62.40
63317;DHT22;49822;41.468;13.560;2023-02-01T16:22:21;10.70;62.50
63317;DHT22;49822;41.468;13.560;2023-02-01T16:24:49;10.80;61.90
63317;DHT22;49822;41.468;13.560;2023-02-01T16:27:18;10.70;61.90
63317;DHT22;49822;41.468;13.560;2023-02-01T16:29:48;10.60;62.30
63317;DHT22;49822;41.468;13.560;2023-02-01T16:32:19;10.50;62.60
63317;DHT22;49822;41.468;13.560;2023-02-01T16:34:48;10.30;62.50
63317;DHT22;49822;41.468;13.560;2023-02-01T16:37:22;10.50;62.20
63317;DHT22;49822;41.468;13.560;2023-02-01T16:39:50;10.70;61.50
63317;DHT22;49822;41.468;13.560;2023-02-01T16:42:18;10.30;62.20
63317;DHT22;49822;41.468;13.560;2023-02-01T16:44:45;10.20;62.80
63317;DHT22;49822;41.468;13.560;2023-02-01T16:47:21;10.40;61.80
63317;DHT22;49822;41.468;13.560;2023-02-01T16:49:51;10.40;61.70
63317;DHT22;49822;41.468;13.560;2023-02-01T16:52:21;10.40;61.60
63317;DHT22;49822;41.468;13.560;2023-02-01T16:54:49;10.40;61.80
63317;DHT22;49822;41.468;13.560;2023-02-01T16:57:18;10.20;62.20
63317;DHT22;49822;41.468;13.560;2023-02-01T16:59:50;10.10;62.50
63317;DHT22;49822;41.468;13.560;2023-02-01T17:02:19;10.00;62.90
63317;DHT22;49822;41.468;13.560;2023-02-01T17:04:48;9.70;63.40
63317;DHT22;49822;41.468;13.560;2023-02-01T17:07:18;9.80;63.20
63317;DHT22;49822;41.468;13.560;2023-02-01T17:09:46;9.80;63.30
63317;DHT22;49822;41.468;13.560;2023-02-01T17:12:25;9.80;62.70
63317;DHT22;49822;41.468;13.560;2023-02-01T17:14:53;9.80;62.70
63317;DHT22;49822;41.468;13.560;2023-02-01T17:17:21;9.80;62.70
63317;DHT22;49822;41.468;13.560;2023-02-01T17:20:05;9.70;63.00
63317;DHT22;49822;41.468;13.560;2023-02-01T17:22:33;9.60;62.80
63317;DHT22;49822;41.468;13.560;2023-02-01T17:25:01;9.70;62.40
63317;DHT22;49822;41.468;13.560;2023-02-01T17:27:28;9.60;62.60
63317;DHT22;49822;41.468;13.560;2023-02-01T17:29:56;9.60;62.40
63317;DHT22;49822;41.468;13.560;2023-02-01T17:32:25;9.60;61.80
63317;DHT22;49822;41.468;13.560;2023-02-01T17:34:55;9.60;61.50
63317;DHT22;49822;41.468;13.560;2023-02-01T17:37:29;9.70;60.80
63317;DHT22;49822;41.468;13.560;2023-02-01T17:39:59;9.70;60.60
63317;DHT22;49822;41.468;13.560;2023-02-01T17:42:28;9.50;61.00
63317;DHT22;49822;41.468;13.560;2023-02-01T17:45:10;9.50;61.30
63317;DHT22;49822;41.468;13.560;2023-02-01T17:47:38;9.60;61.00
63317;DHT22;49822;41.468;13.560;2023-02-01T17:50:06;9.90;60.50
63317;DHT22;49822;41.468;13.560;2023-02-01T17:52:34;9.90;60.30
63317;DHT22;49822;41.468;13.560;2023-02-01T17:55:16;9.90;60.00
63317;DHT22;49822;41.468;13.560;2023-02-01T17:57:45;10.00;59.70
63317;DHT22;49822;41.468;13.560;2023-02-01T18:00:15;10.00;59.70
63317;DHT22;49822;41.468;13.560;2023-02-01T18:02:44;9.90;59.80
63317;DHT22;49822;41.468;13.560;2023-02-01T18:05:38;10.00;59.10
63317;DHT22;49822;41.468;13.560;2023-02-01T18:08:08;9.70;60.20
63317;DHT22;49822;41.468;13.560;2023-02-01T18:10:36;9.50;61.00
63317;DHT22;49822;41.468;13.560;2023-02-01T18:13:04;9.40;61.20
63317;DHT22;49822;41.468;13.560;2023-02-01T18:15:31;9.40;61.30
63317;DHT22;49822;41.468;13.560;2023-02-01T18:18:00;9.20;62.00
63317;DHT22;49822;41.468;13.560;2023-02-01T18:20:28;9.20;62.10
63317;DHT22;49822;41.468;13.560;2023-02-01T18:22:55;9.00;62.40
63317;DHT22;49822;41.468;13.560;2023-02-01T18:25:26;9.00;62.50
63317;DHT22;49822;41.468;13.560;2023-02-01T18:27:55;9.20;62.00
63317;DHT22;49822;41.468;13.560;2023-02-01T18:30:27;9.40;61.30
63317;DHT22;49822;41.468;13.560;2023-02-01T18:32:59;9.40;61.30
63317;DHT22;49822;41.468;13.560;2023-02-01T18:35:29;9.20;61.60
63317;DHT22;49822;41.468;13.560;2023-02-01T18:37:58;9.00;62.50
63317;DHT22;49822;41.468;13.560;2023-02-01T18:40:29;8.90;63.10
63317;DHT22;49822;41.468;13.560;2023-02-01T18:42:59;9.00;63.10
63317;DHT22;49822;41.468;13.560;2023-02-01T18:45:40;9.00;62.70
63317;DHT22;49822;41.468;13.560;2023-02-01T18:48:17;9.20;62.10
63317;DHT22;49822;41.468;13.560;2023-02-01T18:50:47;9.10;62.10
63317;DHT22;49822;41.468;13.560;2023-02-01T18:53:19;9.20;61.90
63317;DHT22;49822;41.468;13.560;2023-02-01T18:55:49;9.20;61.70
63317;DHT22;49822;41.468;13.560;2023-02-01T18:58:20;9.00;62.10
63317;DHT22;49822;41.468;13.560;2023-02-01T19:00:54;9.00;62.40
63317;DHT22;49822;41.468;13.560;2023-02-01T19:03:25;8.90;63.00
63317;DHT22;49822;41.468;13.560;2023-02-01T19:05:54;8.80;64.00
63317;DHT22;49822;41.468;13.560;2023-02-01T19:08:23;8.60;64.80
63317;DHT22;49822;41.468;13.560;2023-02-01T19:10:53;8.10;66.00
63317;DHT22;49822;41.468;13.560;2023-02-01T19:13:20;7.80;67.70